Time;durP1;ratioP1;P1;durP2;ratioP2;P2;SDS_P1;SDS_P2;PMS_P1;PMS_P2;Temp;Humidity;BMP_temperature;BMP_pressure;BME280_temperature;BME280_humidity;BME280_pressure;Samples;Min_cycle;Max_cycle;Signal;HPM_P1;HPM_P2
2024/01/24 00:02:17;;;;;;;2.95;0.98;;;;;;;11.18;100.00;101678.88;5034277;28;20542;-73
2024/01/24 00:04:42;;;;;;;1.88;0.60;;;;;;;11.16;100.00;101669.97;5035408;28;20022;-72
2024/01/24 00:07:08;;;;;;;4.78;0.90;;;;;;;11.16;100.00;101658.84;5035393;28;20032;-73
2024/01/24 00:09:33;;;;;;;4.78;0.75;;;;;;;11.16;100.00;101660.78;5034348;28;20033;-73
2024/01/24 00:11:59;;;;;;;4.53;0.88;;;;;;;11.15;100.00;101661.91;5050588;28;20030;-73
2024/01/24 00:14:25;;;;;;;3.85;0.82;;;;;;;11.16;100.00;101667.19;5021279;28;20037;-73
2024/01/24 00:16:51;;;;;;;1.85;0.60;;;;;;;11.15;100.00;101675.81;5021374;28;20037;-72
2024/01/24 00:19:16;;;;;;;3.00;0.77;;;;;;;11.17;100.00;101673.56;5035055;28;20038;-73
2024/01/24 00:21:42;;;;;;;3.20;0.70;;;;;;;11.15;100.00;101675.81;5003338;28;20034;-73
2024/01/24 00:24:07;;;;;;;2.92;0.82;;;;;;;11.16;100.00;101677.47;5019230;28;20038;-73
2024/01/24 00:26:33;;;;;;;3.17;0.70;;;;;;;11.14;100.00;101665.78;4987212;28;20021;-73
2024/01/24 00:28:58;;;;;;;2.00;0.60;;;;;;;11.17;100.00;101673.56;5021460;28;20478;-73
2024/01/24 00:31:24;;;;;;;1.83;0.63;;;;;;;11.17;100.00;101668.00;4986786;28;20042;-73
2024/01/24 00:33:52;;;;;;;3.53;0.70;;;;;;;11.13;100.00;101673.28;5005075;28;20084;-73
2024/01/24 00:36:17;;;;;;;2.92;0.70;;;;;;;11.15;100.00;101673.84;5037519;28;20029;-73
2024/01/24 00:38:43;;;;;;;2.90;0.82;;;;;;;11.15;100.00;101670.25;5020004;28;20025;-73
2024/01/24 00:41:09;;;;;;;3.20;0.75;;;;;;;11.16;100.00;101671.91;5043170;28;20037;-73
2024/01/24 00:43:34;;;;;;;4.82;0.70;;;;;;;11.15;100.00;101682.19;5002618;28;20034;-73
2024/01/24 00:46:00;;;;;;;2.28;0.73;;;;;;;11.14;100.00;101680.53;5030990;28;20033;-73
2024/01/24 00:48:26;;;;;;;2.75;0.65;;;;;;;11.15;100.00;101686.94;5021162;28;20056;-73
2024/01/24 00:50:53;;;;;;;1.85;0.60;;;;;;;11.15;100.00;101698.88;5037348;28;20025;-73
2024/01/24 00:53:19;;;;;;;2.63;0.60;;;;;;;11.12;100.00;101693.84;5041337;28;20033;-73
2024/01/24 00:55:46;;;;;;;1.70;0.52;;;;;;;11.15;100.00;101698.06;5020992;28;20551;-73
2024/01/24 00:58:11;;;;;;;1.58;0.50;;;;;;;11.17;100.00;101701.38;5021211;28;20102;-73
2024/01/24 01:00:37;;;;;;;4.18;0.73;;;;;;;11.15;100.00;101686.94;5037182;28;20037;-73
2024/01/24 01:03:03;;;;;;;3.17;0.90;;;;;;;11.16;100.00;101683.03;5004250;28;20486;-73
2024/01/24 01:05:28;;;;;;;4.55;0.73;;;;;;;11.13;100.00;101678.00;4988093;28;20021;-73
2024/01/24 01:07:54;;;;;;;2.08;0.65;;;;;;;11.12;100.00;101679.97;5037259;28;20040;-73
2024/01/24 01:10:20;;;;;;;3.38;1.25;;;;;;;11.14;100.00;101679.69;5034762;28;20056;-73
2024/01/24 01:12:45;;;;;;;2.45;0.68;;;;;;;11.16;100.00;101666.34;5004234;28;20436;-73
2024/01/24 01:15:11;;;;;;;6.20;0.95;;;;;;;11.14;100.00;101669.41;4993995;28;20580;-73
2024/01/24 01:17:36;;;;;;;1.73;0.60;;;;;;;11.15;100.00;101664.69;5004213;28;20037;-73
2024/01/24 01:20:03;;;;;;;5.03;1.10;;;;;;;11.13;100.00;101662.16;5018048;28;20041;-73
2024/01/24 01:22:28;;;;;;;6.65;0.90;;;;;;;11.17;100.00;101668.00;5036969;28;20053;-73
2024/01/24 01:24:54;;;;;;;5.15;1.10;;;;;;;11.15;100.00;101664.69;5036595;28;20029;-73
2024/01/24 01:27:19;;;;;;;4.72;0.75;;;;;;;11.15;100.00;101668.28;5034064;28;20041;-72
2024/01/24 01:29:45;;;;;;;3.13;0.90;;;;;;;11.14;100.00;101672.19;5020042;28;20037;-73
2024/01/24 01:32:10;;;;;;;4.05;0.90;;;;;;;11.13;100.00;101666.88;5033851;28;20026;-73
2024/01/24 01:34:36;;;;;;;6.00;1.13;;;;;;;11.13;100.00;101669.66;5036410;28;20449;-73
2024/01/24 01:37:01;;;;;;;3.67;1.10;;;;;;;11.13;100.00;101678.00;5037928;28;20029;-73
2024/01/24 01:39:28;;;;;;;4.47;1.05;;;;;;;11.14;100.00;101674.09;5037576;28;20029;-73
2024/01/24 01:41:53;;;;;;;6.10;0.90;;;;;;;11.11;100.00;101677.44;5010694;28;20120;-73
2024/01/24 01:44:19;;;;;;;5.40;1.48;;;;;;;11.10;100.00;101675.78;5019834;28;20026;-73
2024/01/24 01:46:45;;;;;;;3.63;0.90;;;;;;;11.12;100.00;101682.75;5003552;28;20036;-73
2024/01/24 01:49:10;;;;;;;8.10;1.30;;;;;;;11.14;100.00;101685.22;5053207;28;20409;-73
2024/01/24 01:51:36;;;;;;;6.95;1.30;;;;;;;11.12;100.00;101684.69;5039217;28;20029;-73
2024/01/24 01:54:02;;;;;;;7.13;0.95;;;;;;;11.11;100.00;101688.56;5053040;28;20504;-73
2024/01/24 01:56:28;;;;;;;4.60;1.10;;;;;;;11.12;100.00;101684.69;5036226;28;20033;-73
2024/01/24 01:58:53;;;;;;;4.18;0.90;;;;;;;11.10;100.00;101684.13;5036153;28;20488;-73
2024/01/24 02:01:18;;;;;;;5.65;1.38;;;;;;;11.12;100.00;101696.66;4992145;28;20037;-73
2024/01/24 02:03:45;;;;;;;5.40;1.10;;;;;;;11.12;100.00;101704.16;5016389;28;20033;-72
2024/01/24 02:06:11;;;;;;;8.63;1.30;;;;;;;11.11;100.00;101691.34;5020024;28;20025;-73
2024/01/24 02:08:36;;;;;;;7.43;1.10;;;;;;;11.10;100.00;101695.22;5035904;28;20095;-72
2024/01/24 02:11:02;;;;;;;6.82;1.10;;;;;;;11.10;100.00;101689.66;5036387;28;20029;-73
2024/01/24 02:13:31;;;;;;;7.22;1.40;;;;;;;11.11;100.00;101702.47;5052608;28;20433;-73
2024/01/24 02:15:57;;;;;;;5.85;1.52;;;;;;;11.11;100.00;101702.47;5020011;28;20029;-73
2024/01/24 02:18:23;;;;;;;8.65;1.42;;;;;;;11.14;100.00;101701.91;5037049;28;20037;-73
2024/01/24 02:20:48;;;;;;;7.22;1.60;;;;;;;11.14;100.00;101713.03;5032440;28;20022;-73
2024/01/24 02:23:14;;;;;;;6.57;1.25;;;;;;;11.13;100.00;101711.38;5017182;28;20450;-73
2024/01/24 02:25:39;;;;;;;9.52;1.67;;;;;;;11.14;100.00;101718.59;5035837;28;20034;-73
2024/01/24 02:28:05;;;;;;;7.03;1.60;;;;;;;11.14;100.00;101708.34;5035852;28;20474;-73
2024/01/24 02:30:30;;;;;;;7.40;1.63;;;;;;;11.12;100.00;101715.28;5019272;28;20083;-73
2024/01/24 02:32:58;;;;;;;6.40;1.58;;;;;;;11.11;100.00;101711.63;5033554;28;20216;-73
2024/01/24 02:35:25;;;;;;;12.82;2.25;;;;;;;11.14;100.00;101713.03;5036090;28;20040;-73
2024/01/24 02:37:50;;;;;;;8.57;2.00;;;;;;;11.13;100.00;101716.94;5036928;28;20493;-73
2024/01/24 02:40:16;;;;;;;9.50;2.45;;;;;;;11.13;100.00;101716.94;5001608;28;20025;-73
2024/01/24 02:42:41;;;;;;;8.07;2.25;;;;;;;11.16;100.00;101716.41;5049536;28;20025;-73
2024/01/24 02:45:07;;;;;;;8.07;1.73;;;;;;;11.12;100.00;101721.66;5012888;28;20018;-73
2024/01/24 02:47:32;;;;;;;8.48;1.95;;;;;;;11.11;100.00;101719.97;5033332;28;20033;-73
2024/01/24 02:50:01;;;;;;;9.27;1.95;;;;;;;11.10;100.00;101712.75;5035305;28;20029;-73
2024/01/24 02:52:27;;;;;;;11.95;1.77;;;;;;;11.12;100.00;101718.88;5037827;28;20037;-73
2024/01/24 02:54:53;;;;;;;11.68;2.20;;;;;;;11.15;100.00;101720.28;5018737;28;20048;-73
2024/01/24 02:57:18;;;;;;;11.40;2.00;;;;;;;11.14;100.00;101719.47;4990132;28;20029;-73
2024/01/24 02:59:45;;;;;;;6.80;1.75;;;;;;;11.16;100.00;101727.50;5018752;28;20037;-73
2024/01/24 03:02:10;;;;;;;12.50;2.03;;;;;;;11.17;100.00;101706.94;5034768;28;20455;-73
2024/01/24 03:04:36;;;;;;;27.45;12.18;;;;;;;11.17;100.00;101716.13;5035232;28;20026;-73
2024/01/24 03:07:02;;;;;;;17.75;4.53;;;;;;;11.16;100.00;101708.06;5018616;28;20490;-73
2024/01/24 03:09:28;;;;;;;21.50;6.18;;;;;;;11.17;100.00;101704.16;5035030;28;20030;-73
2024/01/24 03:11:53;;;;;;;18.33;7.35;;;;;;;11.19;100.00;101710.28;5035050;28;20422;-73
2024/01/24 03:14:19;;;;;;;23.02;11.90;;;;;;;11.21;100.00;101707.25;5035003;28;20033;-72
2024/01/24 03:16:44;;;;;;;25.90;13.13;;;;;;;11.16;100.00;101717.22;5015593;28;20033;-73
2024/01/24 03:19:10;;;;;;;20.25;12.10;;;;;;;11.17;100.00;101715.28;4986050;28;20037;-73
2024/01/24 03:21:35;;;;;;;16.67;8.50;;;;;;;11.15;100.00;101723.06;5051303;28;20038;-73
2024/01/24 03:24:01;;;;;;;19.13;7.35;;;;;;;11.17;100.00;101727.25;4989834;28;20037;-73
2024/01/24 03:26:26;;;;;;;15.07;7.05;;;;;;;11.18;100.00;101720.59;5035097;28;20033;-73
2024/01/24 03:28:52;;;;;;;19.45;6.70;;;;;;;11.18;100.00;101720.59;5033964;28;20033;-73
2024/01/24 03:31:17;;;;;;;16.30;6.20;;;;;;;11.16;100.00;101721.97;5033564;28;20025;-73
2024/01/24 03:33:43;;;;;;;16.15;5.43;;;;;;;11.17;100.00;101718.06;5014792;28;20605;-73
2024/01/24 03:36:08;;;;;;;12.45;5.43;;;;;;;11.15;100.00;101720.28;5033510;28;20117;-73
2024/01/24 03:38:34;;;;;;;14.98;5.18;;;;;;;11.14;100.00;101718.59;5035020;28;20029;-73
2024/01/24 03:41:00;;;;;;;14.68;5.30;;;;;;;11.15;100.00;101717.50;5046158;28;20025;-73
2024/01/24 03:43:26;;;;;;;17.52;5.05;;;;;;;11.15;100.00;101725.84;5030410;28;20075;-73
2024/01/24 03:45:51;;;;;;;9.48;4.78;;;;;;;11.14;100.00;101729.72;5049817;28;20478;-73
2024/01/24 03:48:17;;;;;;;7.95;4.03;;;;;;;11.15;100.00;101736.97;5033389;28;20108;-73
2024/01/24 03:50:42;;;;;;;14.73;4.20;;;;;;;11.14;100.00;101736.16;5013625;28;20021;-73
2024/01/24 03:53:08;;;;;;;13.02;4.15;;;;;;;11.14;100.00;101730.59;5018651;28;20025;-73
2024/01/24 03:55:33;;;;;;;14.38;4.47;;;;;;;11.13;100.00;101739.19;5019710;28;20022;-73
2024/01/24 03:57:58;;;;;;;11.05;4.40;;;;;;;11.14;100.00;101736.16;5050141;28;20037;-73
2024/01/24 04:00:24;;;;;;;11.65;4.00;;;;;;;11.12;100.00;101743.91;5033490;28;20161;-73
2024/01/24 04:02:50;;;;;;;13.05;4.40;;;;;;;11.14;100.00;101749.19;4997194;28;20030;-73
2024/01/24 04:05:16;;;;;;;11.52;3.83;;;;;;;11.13;100.00;101742.78;5032400;28;20033;-73
2024/01/24 04:07:41;;;;;;;10.23;4.03;;;;;;;11.14;100.00;101740.84;5034486;28;20558;-73
2024/01/24 04:10:08;;;;;;;13.68;4.55;;;;;;;11.15;100.00;101742.53;5033338;28;20056;-73
2024/01/24 04:12:33;;;;;;;12.00;4.28;;;;;;;11.16;100.00;101741.41;5017132;28;20044;-73
2024/01/24 04:14:58;;;;;;;12.40;4.25;;;;;;;11.13;100.00;101744.75;5034341;28;20026;-73
2024/01/24 04:17:24;;;;;;;10.05;4.05;;;;;;;11.13;100.00;101742.78;5016426;28;20063;-73
2024/01/24 04:19:50;;;;;;;10.88;3.80;;;;;;;11.15;100.00;101748.94;5016758;28;20056;-73
2024/01/24 04:22:16;;;;;;;9.38;3.13;;;;;;;11.16;100.00;101738.63;4948431;28;1498472;-73
2024/01/24 04:24:42;;;;;;;9.82;3.15;;;;;;;11.16;100.00;101742.25;5017561;28;20032;-73
2024/01/24 04:27:08;;;;;;;9.15;3.55;;;;;;;11.14;100.00;101744.47;4985129;28;20097;-73
2024/01/24 04:29:33;;;;;;;12.70;3.30;;;;;;;11.16;100.00;101755.31;5017732;28;20171;-73
2024/01/24 04:31:59;;;;;;;11.65;3.05;;;;;;;11.18;100.00;101755.91;5033681;28;20026;-73
2024/01/24 04:34:24;;;;;;;11.25;3.22;;;;;;;11.16;100.00;101761.72;5033338;28;20168;-73
2024/01/24 04:36:49;;;;;;;6.25;3.20;;;;;;;11.16;100.00;101763.66;5035011;28;20454;-73
2024/01/24 04:39:15;;;;;;;9.95;3.40;;;;;;;11.16;100.00;101769.22;5033919;28;20176;-74
2024/01/24 04:41:41;;;;;;;7.47;3.45;;;;;;;11.17;100.00;101768.09;5040493;28;20033;-73
2024/01/24 04:44:06;;;;;;;11.77;3.22;;;;;;;11.16;100.00;101766.44;5033690;28;20079;-73
2024/01/24 04:46:32;;;;;;;16.40;3.38;;;;;;;11.18;100.00;101767.03;5025693;28;20083;-73
2024/01/24 04:48:58;;;;;;;10.35;3.60;;;;;;;11.16;100.00;101763.66;5033809;28;20041;-73
2024/01/24 04:51:23;;;;;;;10.30;3.67;;;;;;;11.17;100.00;101773.66;5035258;28;20060;-73
2024/01/24 04:53:50;;;;;;;8.82;3.20;;;;;;;11.17;100.00;101768.97;5034782;28;20728;-73
2024/01/24 04:56:16;;;;;;;7.20;2.92;;;;;;;11.13;100.00;101767.81;5033806;28;20026;-73
2024/01/24 04:58:42;;;;;;;11.23;2.92;;;;;;;11.15;100.00;101775.91;5017844;28;20108;-73
2024/01/24 05:01:07;;;;;;;13.75;3.30;;;;;;;11.15;100.00;101768.38;5037300;28;20501;-73
2024/01/24 05:03:33;;;;;;;5.18;2.75;;;;;;;11.16;100.00;101766.44;5037475;28;20022;-73
2024/01/24 05:05:58;;;;;;;11.13;3.60;;;;;;;11.17;100.00;101773.66;5038677;28;20429;-73
2024/01/24 05:08:24;;;;;;;12.27;2.53;;;;;;;11.19;100.00;101777.03;5037446;28;20036;-73
2024/01/24 05:10:50;;;;;;;10.43;3.28;;;;;;;11.18;100.00;101781.75;5004567;28;20029;-73
2024/01/24 05:13:16;;;;;;;12.30;3.25;;;;;;;11.18;100.00;101786.47;5020997;28;20025;-73
2024/01/24 05:15:41;;;;;;;10.73;3.30;;;;;;;11.18;100.00;101786.47;5020911;28;20033;-73
2024/01/24 05:18:07;;;;;;;9.90;3.08;;;;;;;11.18;100.00;101780.94;5038231;28;20034;-73
2024/01/24 05:20:32;;;;;;;11.77;3.42;;;;;;;11.18;100.00;101792.88;5038445;28;20066;-73
2024/01/24 05:22:58;;;;;;;10.50;2.95;;;;;;;11.20;100.00;101789.84;5036709;28;20045;-73
2024/01/24 05:25:24;;;;;;;10.32;3.50;;;;;;;11.21;100.00;101790.69;5020342;28;20029;-73
2024/01/24 05:27:49;;;;;;;11.43;3.17;;;;;;;11.20;100.00;101795.41;5001074;28;20536;-73
2024/01/24 05:30:15;;;;;;;11.88;3.40;;;;;;;11.19;100.00;101800.09;5035524;28;20646;-73
2024/01/24 05:32:40;;;;;;;9.23;2.97;;;;;;;11.19;100.00;101804.84;5036862;28;20025;-73
2024/01/24 05:35:06;;;;;;;6.43;2.75;;;;;;;11.19;100.00;101799.28;5036718;28;20029;-73
2024/01/24 05:37:32;;;;;;;13.23;2.90;;;;;;;11.20;100.00;101820.44;5038160;28;20367;-73
2024/01/24 05:39:57;;;;;;;6.40;3.15;;;;;;;11.20;100.00;101823.22;5004202;28;20036;-73
2024/01/24 05:42:23;;;;;;;9.60;3.00;;;;;;;11.23;100.00;101817.13;4991994;28;20026;-73
2024/01/24 05:44:49;;;;;;;10.52;2.65;;;;;;;11.26;100.00;101821.31;5003825;28;20029;-73
2024/01/24 05:47:15;;;;;;;5.05;2.50;;;;;;;11.26;100.00;101807.41;5036283;28;20029;-72
2024/01/24 05:49:41;;;;;;;5.68;2.30;;;;;;;11.25;100.00;101817.66;5000470;28;20038;-73
2024/01/24 05:52:06;;;;;;;11.85;2.80;;;;;;;11.26;100.00;101813.78;5018246;28;20022;-73
2024/01/24 05:54:32;;;;;;;10.70;2.65;;;;;;;11.24;100.00;101829.06;5036262;28;20022;-73
2024/01/24 05:56:57;;;;;;;5.43;2.08;;;;;;;11.23;100.00;101828.25;5036369;28;20042;-73
2024/01/24 05:59:23;;;;;;;6.00;1.98;;;;;;;11.23;100.00;101831.03;5037472;28;20029;-73
2024/01/24 06:01:50;;;;;;;3.78;2.00;;;;;;;11.23;100.00;101841.28;5052489;28;20033;-73
2024/01/24 06:04:15;;;;;;;6.63;2.00;;;;;;;11.21;100.00;101837.94;5036186;28;20049;-73
2024/01/24 06:06:41;;;;;;;4.90;2.33;;;;;;;11.20;100.00;101842.69;5035887;28;20040;-73
2024/01/24 06:09:06;;;;;;;5.75;1.67;;;;;;;11.21;100.00;101849.06;5019382;28;20040;-73
2024/01/24 06:11:32;;;;;;;5.53;2.42;;;;;;;11.17;100.00;101848.75;5034802;28;20025;-73
2024/01/24 06:13:57;;;;;;;8.00;1.80;;;;;;;11.16;100.00;101849.84;5003423;28;20092;-73
2024/01/24 06:16:23;;;;;;;8.13;1.30;;;;;;;11.15;100.00;101837.06;5003161;28;20036;-73
2024/01/24 06:18:48;;;;;;;3.78;1.80;;;;;;;11.14;100.00;101852.06;4999719;28;20483;-73
2024/01/24 06:21:13;;;;;;;3.50;1.15;;;;;;;11.13;100.00;101850.38;5032588;28;20041;-73
2024/01/24 06:23:39;;;;;;;5.03;1.33;;;;;;;11.11;100.00;101856.22;5036894;28;20046;-73
2024/01/24 06:26:04;;;;;;;4.82;1.50;;;;;;;11.10;100.00;101862.88;5052469;28;20026;-73
2024/01/24 06:28:30;;;;;;;4.07;1.00;;;;;;;11.11;100.00;101858.97;5019521;28;20064;-73
2024/01/24 06:30:56;;;;;;;3.30;1.27;;;;;;;11.10;100.00;101850.94;5019249;28;20033;-73
2024/01/24 06:33:21;;;;;;;4.20;1.10;;;;;;;11.07;100.00;101854.25;5016027;28;20400;-73
2024/01/24 06:35:47;;;;;;;3.60;1.00;;;;;;;11.07;100.00;101859.81;5032182;28;20067;-73
2024/01/24 06:38:14;;;;;;;3.00;0.98;;;;;;;11.08;100.00;101870.63;4986402;28;20026;-73
2024/01/24 06:40:40;;;;;;;6.25;1.10;;;;;;;11.06;100.00;101869.22;5013658;28;20029;-73
2024/01/24 06:43:05;;;;;;;6.25;0.95;;;;;;;11.04;100.00;101869.50;5003289;28;20025;-73
2024/01/24 06:45:31;;;;;;;1.42;0.80;;;;;;;11.03;100.00;101864.19;5014001;28;20467;-73
2024/01/24 06:47:57;;;;;;;1.80;0.70;;;;;;;11.04;100.00;101874.22;4985060;28;20126;-73
2024/01/24 06:50:24;;;;;;;3.20;0.70;;;;;;;11.02;100.00;101876.44;4999481;28;20071;-73
2024/01/24 06:52:49;;;;;;;2.28;0.80;;;;;;;11.04;100.00;101890.91;4998972;28;20120;-73
2024/01/24 06:55:19;;;;;;;3.67;0.80;;;;;;;11.01;100.00;101891.44;5015446;28;20034;-73
2024/01/24 06:57:45;;;;;;;5.47;0.80;;;;;;;10.98;100.00;101908.63;5001313;28;20041;-73
2024/01/24 07:00:11;;;;;;;1.55;0.80;;;;;;;10.98;100.00;101911.41;5016646;28;20474;-73
2024/01/24 07:02:37;;;;;;;4.15;0.70;;;;;;;10.99;100.00;101916.72;5033283;28;20566;-73
2024/01/24 07:05:03;;;;;;;5.03;0.73;;;;;;;10.99;100.00;101918.66;5031497;28;20025;-73
2024/01/24 07:07:29;;;;;;;2.28;0.90;;;;;;;10.98;100.00;101923.38;5015693;28;20033;-73
2024/01/24 07:09:54;;;;;;;7.38;0.85;;;;;;;10.96;100.00;101931.13;5015590;28;20063;-73
2024/01/24 07:12:20;;;;;;;3.92;0.77;;;;;;;10.94;100.00;101936.09;5000367;28;20112;-73
2024/01/24 07:14:47;;;;;;;5.15;0.82;;;;;;;10.91;100.00;101945.81;5064927;28;20044;-73
2024/01/24 07:17:14;;;;;;;8.32;0.70;;;;;;;10.94;100.00;101948.06;5063163;28;20041;-73
2024/01/24 07:19:40;;;;;;;3.25;0.63;;;;;;;10.93;100.00;101951.13;5032777;28;20037;-73
2024/01/24 07:22:05;;;;;;;5.35;1.05;;;;;;;10.90;100.00;101951.66;5034388;28;20065;-73
2024/01/24 07:24:31;;;;;;;2.08;1.13;;;;;;;10.89;100.00;101959.16;5036104;28;20025;-73
2024/01/24 07:26:57;;;;;;;5.93;0.93;;;;;;;10.88;100.00;101960.22;5018203;28;20045;-73
2024/01/24 07:29:23;;;;;;;6.05;1.10;;;;;;;10.88;100.00;101960.22;5035800;28;20114;-73
2024/01/24 07:31:48;;;;;;;5.75;1.00;;;;;;;10.88;100.00;101965.78;5035672;28;20028;-73
2024/01/24 07:34:15;;;;;;;2.97;0.85;;;;;;;10.89;100.00;101964.72;5014898;28;20029;-73
2024/01/24 07:36:40;;;;;;;4.00;0.80;;;;;;;10.88;100.00;101970.50;5035720;28;20033;-73
2024/01/24 07:39:06;;;;;;;5.78;1.02;;;;;;;10.86;100.00;101973.53;5035754;28;20033;-73
2024/01/24 07:41:32;;;;;;;4.68;0.75;;;;;;;10.86;100.00;101976.31;5042681;28;20558;-73
2024/01/24 07:43:59;;;;;;;4.70;0.90;;;;;;;10.83;100.00;101981.56;5033815;28;20033;-73
2024/01/24 07:46:25;;;;;;;5.15;0.93;;;;;;;10.82;100.00;101986.28;5001778;28;20091;-72
2024/01/24 07:48:51;;;;;;;8.80;0.95;;;;;;;10.81;100.00;101983.75;5017717;28;20087;-73
2024/01/24 07:51:16;;;;;;;4.82;0.90;;;;;;;10.80;100.00;101985.72;5024182;28;20026;-78
2024/01/24 07:53:43;;;;;;;6.97;0.95;;;;;;;10.79;100.00;101983.19;5003363;28;20162;-73
2024/01/24 07:56:10;;;;;;;8.10;1.20;;;;;;;10.78;100.00;101978.72;5035388;28;20121;-73
2024/01/24 07:58:41;;;;;;;9.82;1.45;;;;;;;10.78;100.00;101990.72;5018052;28;20044;-73
2024/01/24 08:01:10;;;;;;;6.68;0.63;;;;;;;10.77;100.00;101989.00;4985473;28;20469;-73
2024/01/24 08:03:35;;;;;;;4.32;0.93;;;;;;;10.78;100.00;101998.19;4998304;28;20033;-73
2024/01/24 08:06:01;;;;;;;5.30;0.82;;;;;;;10.76;100.00;101987.34;5013141;28;20635;-73
2024/01/24 08:08:26;;;;;;;5.63;0.80;;;;;;;10.73;100.00;101996.19;5017753;28;20391;-73
2024/01/24 08:10:52;;;;;;;10.85;1.08;;;;;;;10.73;100.00;101998.97;5017612;28;20037;-73
2024/01/24 08:13:18;;;;;;;3.90;1.10;;;;;;;10.75;100.00;102007.88;5050461;28;20029;-73
2024/01/24 08:15:43;;;;;;;6.20;0.77;;;;;;;10.72;100.00;102002.84;5017810;28;20065;-73
2024/01/24 08:18:08;;;;;;;4.25;0.80;;;;;;;10.76;100.00;102004.00;5032586;28;20040;-73
2024/01/24 08:20:34;;;;;;;4.50;0.73;;;;;;;10.73;100.00;102008.16;5067631;28;20044;-73
2024/01/24 08:23:00;;;;;;;4.07;0.68;;;;;;;10.77;100.00;102002.06;5017490;28;20056;-73
2024/01/24 08:25:28;;;;;;;3.35;1.05;;;;;;;10.76;100.00;102012.34;5017553;28;20030;-73
2024/01/24 08:27:54;;;;;;;5.55;0.73;;;;;;;10.76;100.00;102020.69;5017552;28;20068;-73
2024/01/24 08:30:20;;;;;;;6.50;0.95;;;;;;;10.76;100.00;102029.03;5001577;28;20037;-73
2024/01/24 08:32:46;;;;;;;7.50;0.88;;;;;;;10.78;100.00;102037.94;5031391;28;20037;-73
2024/01/24 08:35:13;;;;;;;6.63;0.90;;;;;;;10.78;100.00;102040.72;5014709;28;20026;-73
2024/01/24 08:37:39;;;;;;;6.38;1.38;;;;;;;10.76;100.00;102045.69;5000893;28;20037;-72
2024/01/24 08:40:08;;;;;;;4.65;0.70;;;;;;;10.80;100.00;102046.84;5029787;28;20033;-73
2024/01/24 08:42:34;;;;;;;7.45;0.98;;;;;;;10.81;100.00;102047.69;5060033;28;20558;-73
2024/01/24 08:44:59;;;;;;;7.10;1.65;;;;;;;10.82;100.00;102044.66;4990004;28;20459;-73
2024/01/24 08:47:25;;;;;;;3.58;1.15;;;;;;;10.81;100.00;102045.75;5004648;28;20091;-73
2024/01/24 08:49:52;;;;;;;5.05;1.05;;;;;;;10.84;100.00;102061.09;5001520;28;20598;-73
2024/01/24 08:52:18;;;;;;;4.40;1.13;;;;;;;10.86;100.00;102062.47;5033862;28;20057;-73
2024/01/24 08:54:43;;;;;;;5.45;1.00;;;;;;;10.88;100.00;102063.06;5035692;28;20478;-73
2024/01/24 08:57:10;;;;;;;5.05;1.00;;;;;;;10.90;100.00;102065.59;5037386;28;20530;-73
2024/01/24 08:59:38;;;;;;;5.22;1.10;;;;;;;10.93;100.00;102065.09;4988461;28;20620;-73
2024/01/24 09:02:04;;;;;;;5.53;1.10;;;;;;;10.94;100.00;102070.38;5021110;28;20033;-73
2024/01/24 09:04:30;;;;;;;5.45;1.30;;;;;;;10.96;100.00;102079.31;5004974;28;20022;-73
2024/01/24 09:06:56;;;;;;;5.53;1.20;;;;;;;11.01;100.00;102074.91;5017390;28;20030;-73
2024/01/24 09:09:21;;;;;;;9.50;1.65;;;;;;;11.02;100.00;102071.88;5025656;28;20017;-73
2024/01/24 09:11:47;;;;;;;4.03;1.27;;;;;;;11.05;100.00;102079.69;5004320;28;20025;-73
2024/01/24 09:14:12;;;;;;;4.35;1.20;;;;;;;11.07;100.00;102080.28;5000955;28;20026;-73
2024/01/24 09:16:38;;;;;;;8.07;1.55;;;;;;;11.07;100.00;102076.66;5034635;28;20029;-73
2024/01/24 09:19:03;;;;;;;5.38;1.02;;;;;;;11.13;100.00;102072.84;5037076;28;20040;-73
2024/01/24 09:21:29;;;;;;;6.05;1.40;;;;;;;11.16;100.00;102075.09;5020355;28;20038;-73
2024/01/24 09:23:54;;;;;;;6.13;1.73;;;;;;;11.18;100.00;102076.50;4985660;28;20524;-73
2024/01/24 09:26:20;;;;;;;8.35;1.50;;;;;;;11.22;100.00;102064.88;5000309;28;20030;-73
2024/01/24 09:28:45;;;;;;;7.50;1.48;;;;;;;11.28;100.00;102069.38;5001414;28;20037;-72
2024/01/24 09:31:11;;;;;;;7.32;1.35;;;;;;;11.32;100.00;102073.34;5000162;28;20033;-73
2024/01/24 09:33:36;;;;;;;8.98;1.40;;;;;;;11.35;100.00;102070.88;5016067;28;20487;-73
2024/01/24 09:36:02;;;;;;;8.00;1.73;;;;;;;11.40;100.00;102076.47;5000836;28;20045;-73
2024/01/24 09:38:28;;;;;;;6.18;1.80;;;;;;;11.45;100.00;102077.63;4985511;28;20760;-73
2024/01/24 09:40:53;;;;;;;3.95;1.38;;;;;;;11.51;100.00;102076.59;5036320;28;20042;-72
2024/01/24 09:43:19;;;;;;;6.93;1.77;;;;;;;11.57;100.00;102081.13;5031643;28;20025;-73
2024/01/24 09:45:44;;;;;;;9.98;1.38;;;;;;;11.61;100.00;102085.88;5034016;28;20040;-73
2024/01/24 09:48:11;;;;;;;6.68;1.80;;;;;;;11.67;100.00;102088.72;5019672;28;20516;-73
2024/01/24 09:50:37;;;;;;;7.25;1.55;;;;;;;11.71;100.00;102085.16;5033473;28;20033;-73
2024/01/24 09:53:17;;;;;;;10.40;1.50;;;;;;;11.75;100.00;102091.03;5050775;28;20116;-72
2024/01/24 09:55:43;;;;;;;6.88;1.33;;;;;;;11.80;100.00;102097.47;5032481;28;20029;-73
2024/01/24 09:58:08;;;;;;;5.10;1.25;;;;;;;11.85;100.00;102093.91;5032527;28;20086;-73
2024/01/24 10:00:34;;;;;;;6.75;1.55;;;;;;;11.91;100.00;102105.97;5018561;28;20022;-73
2024/01/24 10:02:59;;;;;;;9.13;1.67;;;;;;;11.94;100.00;102099.88;5019749;28;20030;-73
2024/01/24 10:05:25;;;;;;;7.53;1.60;;;;;;;11.99;100.00;102105.47;5033235;28;20022;-73
2024/01/24 10:07:50;;;;;;;10.35;1.60;;;;;;;12.05;100.00;102113.59;5017181;28;20030;-73
2024/01/24 10:10:16;;;;;;;5.45;1.20;;;;;;;12.10;100.00;102115.59;5031660;28;20040;-73
2024/01/24 10:12:42;;;;;;;7.40;1.55;;;;;;;12.22;100.00;102121.00;5017235;28;20041;-73
2024/01/24 10:15:08;;;;;;;9.02;1.70;;;;;;;12.28;100.00;102122.69;5033925;28;20037;-73
2024/01/24 10:17:33;;;;;;;7.88;2.40;;;;;;;12.36;100.00;102125.00;5017249;28;20677;-73
2024/01/24 10:19:59;;;;;;;8.00;1.73;;;;;;;12.45;100.00;102122.56;5036060;28;20034;-73
2024/01/24 10:22:25;;;;;;;8.73;1.90;;;;;;;12.52;100.00;102118.44;5032633;28;20099;-73
2024/01/24 10:24:53;;;;;;;10.27;1.70;;;;;;;12.63;100.00;102130.50;5033671;28;20033;-73
2024/01/24 10:27:19;;;;;;;7.30;1.55;;;;;;;12.71;100.00;102132.78;5018472;28;20516;-73
2024/01/24 10:29:44;;;;;;;5.82;1.50;;;;;;;12.82;100.00;102130.06;4992505;28;20026;-73
2024/01/24 10:32:10;;;;;;;9.13;1.30;;;;;;;12.94;100.00;102139.03;5002821;28;20046;-73
2024/01/24 10:34:38;;;;;;;10.10;1.58;;;;;;;13.05;100.00;102131.56;5068850;28;20029;-73
2024/01/24 10:37:07;;;;;;;6.45;1.48;;;;;;;13.14;100.00;102141.94;5016100;28;20034;-73
2024/01/24 10:39:39;;;;;;;8.52;2.20;;;;;;;13.22;100.00;102137.78;5016986;28;20089;-73
2024/01/24 10:42:08;;;;;;;8.90;1.90;;;;;;;13.28;100.00;102142.31;5024579;28;20037;-73
2024/01/24 10:44:35;;;;;;;12.00;1.77;;;;;;;13.33;100.00;102145.13;4999813;28;20035;-73
2024/01/24 10:47:02;;;;;;;7.80;1.35;;;;;;;13.43;100.00;102149.06;4995649;28;20064;-73
2024/01/24 10:49:31;;;;;;;12.65;1.67;;;;;;;13.47;100.00;102156.63;5001248;28;20026;-72
2024/01/24 10:51:56;;;;;;;8.60;1.65;;;;;;;13.52;100.00;102158.59;5037500;28;20026;-73
2024/01/24 10:54:22;;;;;;;8.40;1.60;;;;;;;13.57;100.00;102156.66;5018547;28;20029;-73
2024/01/24 10:56:50;;;;;;;8.10;1.80;;;;;;;13.60;100.00;102163.66;5018074;28;20040;-73
2024/01/24 10:59:19;;;;;;;10.57;1.52;;;;;;;13.66;100.00;102164.50;5033778;28;20041;-73
2024/01/24 11:01:45;;;;;;;9.38;1.77;;;;;;;13.69;100.00;102156.41;5042345;28;20029;-73
2024/01/24 11:04:12;;;;;;;10.50;1.77;;;;;;;13.70;100.00;102149.69;5029915;28;20555;-73
2024/01/24 11:06:53;;;;;;;8.63;1.88;;;;;;;13.73;100.00;102154.72;5000729;28;20401;-73
2024/01/24 11:09:26;;;;;;;7.70;1.52;;;;;;;13.80;100.00;102157.28;5018148;28;20056;-73